Time;durP1;ratioP1;P1;durP2;ratioP2;P2;SDS_P1;SDS_P2;PMS_P1;PMS_P2;Temp;Humidity;BMP_temperature;BMP_pressure;BME280_temperature;BME280_humidity;BME280_pressure;Samples;Min_cycle;Max_cycle;Signal;HPM_P1;HPM_P2
2023/01/13 00:01:46;;;;;;;;;;;8.60;99.90;;;;;;8380963;28;19987;-74
2023/01/13 00:05:47;;;;;;;;;;;8.60;99.90;;;;;;8385680;28;19925;-74
2023/01/13 00:09:49;;;;;;;;;;;8.50;99.90;;;;;;8382915;28;19924;-73
2023/01/13 00:13:51;;;;;;;;;;;8.50;99.90;;;;;;8385385;28;19991;-73
2023/01/13 00:17:52;;;;;;;;;;;8.40;99.90;;;;;;8384363;28;21028;-74
2023/01/13 00:21:54;;;;;;;;;;;8.40;99.90;;;;;;8382339;28;19925;-73
2023/01/13 00:25:56;;;;;;;;;;;8.30;99.90;;;;;;8374148;28;20333;-73
2023/01/13 00:29:58;;;;;;;;;;;8.30;99.90;;;;;;8379571;28;19924;-73
2023/01/13 00:34:00;;;;;;;;;;;8.30;99.90;;;;;;8365195;28;20375;-74
2023/01/13 00:43:23;;;;;;;;;;;8.40;99.90;;;;;;8388720;28;20367;-73
2023/01/13 00:47:25;;;;;;;;;;;8.40;99.90;;;;;;8384043;28;19963;-73
2023/01/13 00:51:26;;;;;;;;;;;8.40;99.90;;;;;;8390185;28;19928;-73
2023/01/13 00:55:34;;;;;;;;;;;8.50;99.90;;;;;;8389707;28;19972;-73
2023/01/13 00:59:36;;;;;;;;;;;8.50;99.90;;;;;;8398951;28;19925;-73
2023/01/13 01:03:37;;;;;;;;;;;8.50;99.90;;;;;;8386561;28;20258;-73
2023/01/13 01:07:39;;;;;;;;;;;8.50;99.90;;;;;;8392950;28;19978;-73
2023/01/13 01:11:41;;;;;;;;;;;8.50;99.90;;;;;;8372425;28;20653;-73
2023/01/13 01:15:43;;;;;;;;;;;8.50;99.90;;;;;;8385210;28;19932;-73
2023/01/13 01:19:45;;;;;;;;;;;8.50;99.90;;;;;;8393375;28;19925;-74
2023/01/13 01:23:46;;;;;;;;;;;8.50;99.90;;;;;;8395120;28;19977;-73
2023/01/13 01:27:48;;;;;;;;;;;8.50;99.90;;;;;;8392443;28;19924;-73
2023/01/13 01:31:49;;;;;;;;;;;8.50;99.90;;;;;;8387798;28;19970;-74
2023/01/13 01:35:52;;;;;;;;;;;8.40;99.90;;;;;;8375167;28;19928;-74
2023/01/13 01:39:53;;;;;;;;;;;8.50;99.90;;;;;;8398242;28;19983;-73
2023/01/13 01:44:01;;;;;;;;;;;8.40;99.90;;;;;;8367544;28;19947;-73
2023/01/13 01:48:03;;;;;;;;;;;8.40;99.90;;;;;;8392747;28;20471;-73
2023/01/13 01:52:06;;;;;;;;;;;8.50;99.90;;;;;;8385349;28;19931;-73
2023/01/13 01:56:08;;;;;;;;;;;8.50;99.90;;;;;;8385604;28;19932;-73
2023/01/13 02:00:11;;;;;;;;;;;8.60;99.90;;;;;;8383469;28;19925;-73
2023/01/13 02:04:22;;;;;;;;;;;8.60;99.90;;;;;;8402262;28;20285;-74
2023/01/13 02:08:23;;;;;;;;;;;8.60;99.90;;;;;;8388744;28;19924;-73
2023/01/13 02:12:28;;;;;;;;;;;8.60;99.90;;;;;;8389177;28;19972;-73
2023/01/13 02:16:30;;;;;;;;;;;8.60;99.90;;;;;;8382317;28;20295;-73
2023/01/13 02:20:51;;;;;;;;;;;8.60;99.90;;;;;;8368764;28;19932;-74
2023/01/13 02:24:56;;;;;;;;;;;8.50;99.90;;;;;;8386792;28;19951;-73
2023/01/13 02:33:49;;;;;;;;;;;8.50;99.90;;;;;;8389664;28;19947;-74
2023/01/13 02:37:52;;;;;;;;;;;8.50;99.90;;;;;;8380163;28;19936;-74
2023/01/13 02:46:24;;;;;;;;;;;8.50;99.90;;;;;;8387967;28;19924;-73
2023/01/13 02:50:33;;;;;;;;;;;8.60;99.90;;;;;;8394452;28;19928;-74
2023/01/13 02:54:36;;;;;;;;;;;8.60;99.90;;;;;;8387206;28;19924;-74
2023/01/13 02:58:38;;;;;;;;;;;8.60;99.90;;;;;;8387954;28;19947;-74
2023/01/13 03:02:40;;;;;;;;;;;8.60;99.90;;;;;;8381979;28;20326;-74
2023/01/13 03:06:41;;;;;;;;;;;8.60;99.90;;;;;;8386131;28;19982;-74
2023/01/13 03:16:05;;;;;;;;;;;8.60;99.90;;;;;;8383085;28;19920;-73
2023/01/13 03:20:11;;;;;;;;;;;8.60;99.90;;;;;;8388098;28;19972;-74
2023/01/13 03:24:17;;;;;;;;;;;8.60;99.90;;;;;;8370333;28;19928;-74
2023/01/13 03:28:21;;;;;;;;;;;8.60;99.90;;;;;;8376228;28;20443;-74
2023/01/13 03:32:27;;;;;;;;;;;8.70;99.90;;;;;;8382266;28;19929;-74
2023/01/13 03:36:29;;;;;;;;;;;8.70;99.90;;;;;;8389381;28;19928;-74
2023/01/13 03:40:37;;;;;;;;;;;8.60;99.90;;;;;;8386373;28;20759;-74
2023/01/13 03:44:45;;;;;;;;;;;8.60;99.90;;;;;;8382110;28;20019;-74
2023/01/13 03:48:48;;;;;;;;;;;8.60;99.90;;;;;;8384839;28;20273;-76
2023/01/13 03:52:54;;;;;;;;;;;8.60;99.90;;;;;;8371944;28;20047;-75
2023/01/13 03:56:58;;;;;;;;;;;8.60;99.90;;;;;;8372502;28;19933;-74
2023/01/13 04:01:14;;;;;;;;;;;8.60;99.90;;;;;;8387129;28;20428;-74
2023/01/13 04:05:16;;;;;;;;;;;8.60;99.90;;;;;;8383367;28;19931;-75
2023/01/13 04:09:39;;;;;;;;;;;8.50;99.90;;;;;;8384571;28;20371;-75
2023/01/13 04:13:42;;;;;;;;;;;8.50;99.90;;;;;;8383287;28;19925;-75
2023/01/13 04:17:43;;;;;;;;;;;8.40;99.90;;;;;;8380480;28;19925;-74
2023/01/13 04:21:45;;;;;;;;;;;8.40;99.90;;;;;;8360633;28;19937;-74
2023/01/13 04:25:47;;;;;;;;;;;8.40;99.90;;;;;;8383694;28;19928;-74
2023/01/13 04:29:49;;;;;;;;;;;8.30;99.90;;;;;;8393146;28;19928;-74
2023/01/13 04:33:50;;;;;;;;;;;8.30;99.90;;;;;;8385527;28;19924;-73
2023/01/13 04:37:52;;;;;;;;;;;8.30;99.90;;;;;;8370809;28;19924;-74
2023/01/13 04:41:57;;;;;;;;;;;8.30;99.90;;;;;;8384035;28;19931;-75
2023/01/13 04:45:58;;;;;;;;;;;8.20;99.90;;;;;;8394352;28;20502;-73
2023/01/13 04:50:00;;;;;;;;;;;8.20;99.90;;;;;;8410447;28;19962;-74
2023/01/13 04:54:02;;;;;;;;;;;8.20;99.90;;;;;;8389955;28;20326;-76
2023/01/13 04:58:04;;;;;;;;;;;8.20;99.90;;;;;;8400477;28;20372;-75
2023/01/13 05:02:07;;;;;;;;;;;8.20;99.90;;;;;;8384126;28;19999;-75
2023/01/13 05:06:09;;;;;;;;;;;8.20;99.90;;;;;;8388168;28;19971;-75
2023/01/13 05:10:11;;;;;;;;;;;8.20;99.90;;;;;;8382748;28;19972;-75
2023/01/13 05:18:33;;;;;;;;;;;8.30;99.90;;;;;;8394937;28;19940;-75
2023/01/13 05:26:55;;;;;;;;;;;8.30;99.90;;;;;;8392543;28;19931;-75
2023/01/13 05:30:57;;;;;;;;;;;8.40;99.90;;;;;;8394977;28;19964;-76
2023/01/13 05:34:59;;;;;;;;;;;8.40;99.90;;;;;;8391604;28;19963;-76
2023/01/13 05:39:00;;;;;;;;;;;8.40;99.90;;;;;;8389119;28;19933;-77
2023/01/13 05:43:19;;;;;;;;;;;8.40;99.90;;;;;;8387381;28;20438;-75
2023/01/13 05:47:20;;;;;;;;;;;8.30;99.90;;;;;;8393742;28;19924;-75
2023/01/13 05:51:25;;;;;;;;;;;8.30;99.90;;;;;;8389455;28;19947;-76
2023/01/13 05:55:26;;;;;;;;;;;8.20;99.90;;;;;;8393907;28;19931;-75
2023/01/13 05:59:28;;;;;;;;;;;8.20;99.90;;;;;;8390429;28;19928;-76
2023/01/13 06:03:30;;;;;;;;;;;8.10;99.90;;;;;;8386121;28;20309;-75
2023/01/13 06:07:32;;;;;;;;;;;8.10;99.90;;;;;;8392720;28;19978;-76
2023/01/13 06:11:33;;;;;;;;;;;8.10;99.90;;;;;;8392877;28;19929;-74
2023/01/13 06:15:35;;;;;;;;;;;8.00;99.90;;;;;;8395871;28;19947;-76
2023/01/13 06:19:37;;;;;;;;;;;8.00;99.90;;;;;;8399174;28;19959;-74
2023/01/13 06:23:38;;;;;;;;;;;8.00;99.90;;;;;;8394083;28;19968;-75
2023/01/13 06:27:40;;;;;;;;;;;8.00;99.90;;;;;;8379134;28;19954;-75
2023/01/13 06:31:42;;;;;;;;;;;8.00;99.90;;;;;;8387063;28;19928;-75
2023/01/13 06:35:47;;;;;;;;;;;8.00;99.90;;;;;;8396339;28;19951;-75
2023/01/13 06:39:49;;;;;;;;;;;8.10;99.90;;;;;;8400103;28;20240;-76
2023/01/13 06:43:50;;;;;;;;;;;8.10;99.90;;;;;;8372757;28;19924;-75
2023/01/13 06:47:53;;;;;;;;;;;8.10;99.90;;;;;;8386198;28;19932;-76
2023/01/13 06:51:55;;;;;;;;;;;8.10;99.90;;;;;;8396098;28;20288;-77
2023/01/13 06:55:56;;;;;;;;;;;8.20;99.90;;;;;;8383401;28;19976;-74
2023/01/13 06:59:58;;;;;;;;;;;8.10;99.90;;;;;;8371446;28;19929;-75
2023/01/13 07:04:01;;;;;;;;;;;8.20;99.90;;;;;;8382160;28;20019;-75
2023/01/13 07:08:03;;;;;;;;;;;8.20;99.90;;;;;;8385416;28;19931;-75
2023/01/13 07:12:04;;;;;;;;;;;8.20;99.90;;;;;;8364706;28;20023;-75
2023/01/13 07:16:07;;;;;;;;;;;8.30;99.90;;;;;;8374584;28;19929;-75
2023/01/13 07:20:09;;;;;;;;;;;8.30;99.90;;;;;;8385693;28;19924;-77
2023/01/13 07:24:11;;;;;;;;;;;8.30;99.90;;;;;;8388272;28;19928;-77
2023/01/13 07:28:12;;;;;;;;;;;8.30;99.90;;;;;;8389974;28;20428;-74
2023/01/13 07:32:14;;;;;;;;;;;8.30;99.90;;;;;;8371963;28;19929;-75
2023/01/13 07:36:16;;;;;;;;;;;8.40;99.90;;;;;;8385320;28;19932;-76
2023/01/13 07:40:17;;;;;;;;;;;8.40;99.90;;;;;;8385669;28;19928;-75
2023/01/13 07:44:19;;;;;;;;;;;8.40;99.90;;;;;;8371709;28;20319;-74
2023/01/13 07:48:21;;;;;;;;;;;8.40;99.90;;;;;;8382471;28;20438;-76
2023/01/13 07:52:22;;;;;;;;;;;8.40;99.90;;;;;;8385686;28;19986;-74
2023/01/13 07:56:24;;;;;;;;;;;8.40;99.90;;;;;;8392333;28;19968;-75
2023/01/13 08:00:26;;;;;;;;;;;8.50;99.90;;;;;;8363368;28;19968;-75
2023/01/13 08:04:27;;;;;;;;;;;8.50;99.90;;;;;;8384437;28;19925;-75
2023/01/13 08:08:29;;;;;;;;;;;8.50;99.90;;;;;;8393899;28;19925;-76
2023/01/13 08:16:54;;;;;;;;;;;8.60;99.90;;;;;;8393668;28;20035;-75
2023/01/13 08:21:00;;;;;;;;;;;8.60;99.90;;;;;;8389795;28;19924;-75
2023/01/13 08:25:01;;;;;;;;;;;8.60;99.90;;;;;;8393534;28;19930;-76
2023/01/13 08:29:03;;;;;;;;;;;8.60;99.90;;;;;;8391945;28;19924;-75
2023/01/13 08:33:06;;;;;;;;;;;8.70;99.90;;;;;;8388193;28;19928;-76
2023/01/13 08:37:08;;;;;;;;;;;8.60;99.90;;;;;;8388503;28;19931;-76
2023/01/13 08:41:10;;;;;;;;;;;8.60;99.90;;;;;;8369841;28;19924;-77
2023/01/13 08:45:12;;;;;;;;;;;8.60;99.90;;;;;;8382062;28;19924;-74
2023/01/13 08:49:15;;;;;;;;;;;8.50;99.90;;;;;;8395808;28;19931;-76
2023/01/13 08:53:16;;;;;;;;;;;8.40;99.90;;;;;;8387931;28;20010;-76
2023/01/13 08:57:18;;;;;;;;;;;8.30;99.90;;;;;;8387630;28;20036;-77
2023/01/13 09:01:21;;;;;;;;;;;8.10;99.90;;;;;;8397473;28;20021;-75
2023/01/13 09:05:23;;;;;;;;;;;8.00;99.90;;;;;;8384081;28;19940;-75
2023/01/13 09:09:26;;;;;;;;;;;7.90;99.90;;;;;;8393378;28;19929;-76
2023/01/13 09:13:28;;;;;;;;;;;7.80;99.90;;;;;;8381686;28;19977;-75
2023/01/13 09:17:29;;;;;;;;;;;7.80;99.90;;;;;;8370394;28;19931;-75
2023/01/13 09:21:31;;;;;;;;;;;7.70;99.90;;;;;;8391817;28;19933;-75
2023/01/13 09:25:35;;;;;;;;;;;7.70;99.90;;;;;;8390130;28;20288;-76
2023/01/13 09:29:37;;;;;;;;;;;7.70;99.90;;;;;;8388587;28;19924;-74
2023/01/13 09:37:59;;;;;;;;;;;7.60;99.90;;;;;;8398854;28;19924;-76
2023/01/13 09:46:43;;;;;;;;;;;7.60;99.90;;;;;;8391549;28;19963;-75
2023/01/13 09:51:00;;;;;;;;;;;7.60;99.90;;;;;;8394547;28;19933;-76
2023/01/13 09:55:13;;;;;;;;;;;7.70;99.90;;;;;;8387556;28;20021;-75
2023/01/13 09:59:15;;;;;;;;;;;7.70;99.90;;;;;;8402384;28;20288;-74
2023/01/13 10:03:18;;;;;;;;;;;7.70;99.90;;;;;;8374237;28;19982;-75
2023/01/13 10:07:20;;;;;;;;;;;7.80;99.90;;;;;;8396663;28;20602;-75
2023/01/13 10:15:53;;;;;;;;;;;7.90;99.90;;;;;;8391910;28;19932;-75
2023/01/13 10:20:07;;;;;;;;;;;7.90;99.90;;;;;;8376328;28;19928;-75
2023/01/13 10:24:14;;;;;;;;;;;8.00;99.90;;;;;;8388490;28;19924;-75
2023/01/13 10:28:22;;;;;;;;;;;8.10;99.90;;;;;;8389904;28;19931;-76
2023/01/13 10:32:24;;;;;;;;;;;8.10;99.90;;;;;;8389379;28;20344;-75
2023/01/13 10:36:25;;;;;;;;;;;8.20;99.90;;;;;;8378693;28;19939;-76
2023/01/13 10:40:27;;;;;;;;;;;8.20;99.90;;;;;;8394763;28;19933;-76
2023/01/13 10:44:29;;;;;;;;;;;8.00;99.90;;;;;;8391695;28;19931;-75
2023/01/13 10:48:41;;;;;;;;;;;7.90;99.90;;;;;;8358423;28;19932;-76
2023/01/13 10:52:57;;;;;;;;;;;7.90;99.90;;;;;;8355125;28;19932;-74
2023/01/13 10:57:12;;;;;;;;;;;7.90;99.90;;;;;;8364870;28;19929;-75
2023/01/13 11:01:24;;;;;;;;;;;7.90;99.90;;;;;;8355854;28;19924;-75
2023/01/13 11:05:26;;;;;;;;;;;8.00;99.90;;;;;;8363274;28;20376;-76
2023/01/13 11:09:29;;;;;;;;;;;8.00;99.90;;;;;;8357524;28;19948;-76
2023/01/13 11:13:32;;;;;;;;;;;8.00;99.90;;;;;;8357537;28;19932;-76
2023/01/13 11:17:44;;;;;;;;;;;8.10;99.90;;;;;;8365983;28;20281;-76
2023/01/13 11:21:55;;;;;;;;;;;8.20;99.90;;;;;;8353930;28;20436;-75
2023/01/13 11:26:00;;;;;;;;;;;8.20;99.90;;;;;;8359789;28;20916;-74
2023/01/13 11:30:20;;;;;;;;;;;8.20;99.90;;;;;;8344963;28;19925;-76
2023/01/13 11:34:21;;;;;;;;;;;8.30;99.90;;;;;;8347993;28;20413;-75
2023/01/13 11:38:42;;;;;;;;;;;8.40;99.90;;;;;;8350360;28;20281;-75
2023/01/13 11:42:47;;;;;;;;;;;8.50;99.90;;;;;;8358860;28;19940;-75
2023/01/13 11:46:50;;;;;;;;;;;8.60;99.90;;;;;;8357870;28;19936;-75
2023/01/13 11:50:57;;;;;;;;;;;8.70;99.90;;;;;;8354387;28;19929;-76
2023/01/13 11:55:14;;;;;;;;;;;8.70;99.90;;;;;;8360565;28;19933;-76
2023/01/13 11:59:34;;;;;;;;;;;8.70;99.90;;;;;;8352104;28;19925;-75
2023/01/13 12:03:38;;;;;;;;;;;8.60;99.90;;;;;;8367592;28;20360;-76
2023/01/13 12:08:09;;;;;;;;;;;8.50;99.90;;;;;;8346616;28;19966;-75
2023/01/13 12:12:26;;;;;;;;;;;8.50;99.90;;;;;;8349765;28;19959;-75
2023/01/13 12:16:29;;;;;;;;;;;8.40;99.90;;;;;;8349991;28;19977;-76
2023/01/13 12:20:42;;;;;;;;;;;8.40;99.90;;;;;;8361936;28;19928;-76
2023/01/13 12:24:50;;;;;;;;;;;8.40;99.90;;;;;;8359838;28;19929;-74
2023/01/13 12:28:55;;;;;;;;;;;8.40;99.90;;;;;;8365326;28;20023;-76
2023/01/13 12:33:02;;;;;;;;;;;8.60;99.90;;;;;;8350221;28;19972;-76
2023/01/13 12:37:12;;;;;;;;;;;8.80;99.90;;;;;;8357674;28;19929;-76
2023/01/13 12:41:19;;;;;;;;;;;9.00;99.90;;;;;;8353340;28;20015;-77
2023/01/13 12:45:23;;;;;;;;;;;9.20;99.90;;;;;;8366059;28;19938;-77
2023/01/13 12:49:26;;;;;;;;;;;9.30;99.90;;;;;;8392751;28;19944;-75
2023/01/13 12:53:30;;;;;;;;;;;9.30;99.90;;;;;;8393362;28;19933;-74
2023/01/13 12:57:32;;;;;;;;;;;9.30;99.90;;;;;;8387578;28;19928;-76
2023/01/13 13:01:34;;;;;;;;;;;9.30;99.90;;;;;;8388074;28;20213;-74
2023/01/13 13:06:11;;;;;;;;;;;9.30;99.90;;;;;;8401124;28;19933;-77
2023/01/13 13:10:23;;;;;;;;;;;9.30;99.90;;;;;;8295067;28;20386;-77
2023/01/13 13:14:54;;;;;;;;;;;9.30;99.90;;;;;;8406285;28;19924;-78
2023/01/13 13:19:14;;;;;;;;;;;9.40;99.90;;;;;;8384909;28;19924;-75
2023/01/13 13:23:28;;;;;;;;;;;9.40;99.90;;;;;;8405963;28;20395;-77
2023/01/13 13:27:36;;;;;;;;;;;9.40;99.90;;;;;;8389719;28;19933;-76
2023/01/13 13:31:41;;;;;;;;;;;9.40;99.90;;;;;;8395959;28;19925;-76
2023/01/13 13:35:50;;;;;;;;;;;9.50;99.90;;;;;;8387067;28;19960;-75
2023/01/13 13:48:36;;;;;;;;;;;9.50;99.90;;;;;;8391066;28;19928;-77
2023/01/13 13:52:41;;;;;;;;;;;9.50;99.90;;;;;;8360047;28;19924;-77
2023/01/13 13:56:44;;;;;;;;;;;9.50;99.90;;;;;;8372310;28;20315;-76
2023/01/13 14:00:46;;;;;;;;;;;9.50;99.90;;;;;;8390131;28;20154;-76
2023/01/13 14:04:48;;;;;;;;;;;9.50;99.90;;;;;;8387719;28;20391;-78
2023/01/13 14:08:50;;;;;;;;;;;9.50;99.90;;;;;;8393890;28;20019;-76
2023/01/13 14:12:52;;;;;;;;;;;9.50;99.90;;;;;;8394556;28;20299;-76
2023/01/13 14:16:54;;;;;;;;;;;9.60;99.90;;;;;;8397672;28;19924;-75
2023/01/13 14:21:03;;;;;;;;;;;9.60;99.90;;;;;;8376109;28;19931;-76
2023/01/13 14:25:23;;;;;;;;;;;9.60;99.90;;;;;;8394427;28;19928;-76
2023/01/13 14:29:25;;;;;;;;;;;9.60;99.90;;;;;;8377772;28;19924;-76
2023/01/13 14:33:27;;;;;;;;;;;9.60;99.90;;;;;;8379410;28;21063;-76
2023/01/13 14:37:32;;;;;;;;;;;9.60;99.90;;;;;;8376450;28;19943;-76
2023/01/13 14:41:41;;;;;;;;;;;9.60;99.90;;;;;;8390701;28;20438;-76
2023/01/13 14:45:58;;;;;;;;;;;9.60;99.90;;;;;;8384528;28;19924;-76
2023/01/13 14:50:09;;;;;;;;;;;9.60;99.90;;;;;;8370490;28;19978;-76
2023/01/13 14:54:29;;;;;;;;;;;9.60;99.90;;;;;;8370849;28;19935;-77
2023/01/13 14:58:31;;;;;;;;;;;9.60;99.90;;;;;;8376713;28;19932;-77
2023/01/13 15:02:37;;;;;;;;;;;9.60;99.90;;;;;;8375030;28;19935;-76
2023/01/13 15:06:44;;;;;;;;;;;9.50;99.90;;;;;;8375218;28;19993;-76
2023/01/13 15:10:53;;;;;;;;;;;9.50;99.90;;;;;;8362770;28;19932;-77
2023/01/13 15:14:55;;;;;;;;;;;9.60;99.90;;;;;;8342091;28;20311;-74
2023/01/13 15:18:57;;;;;;;;;;;9.70;99.90;;;;;;8346559;28;19932;-74
2023/01/13 15:22:59;;;;;;;;;;;9.60;99.90;;;;;;8354670;28;19932;-74
2023/01/13 15:27:02;;;;;;;;;;;9.70;99.90;;;;;;8353168;28;19925;-73
2023/01/13 15:31:04;;;;;;;;;;;9.80;99.90;;;;;;8352726;28;19964;-73
2023/01/13 15:35:06;;;;;;;;;;;9.70;99.90;;;;;;8369617;28;19928;-73
2023/01/13 15:39:10;;;;;;;;;;;9.60;99.90;;;;;;8351898;28;20372;-74
2023/01/13 15:47:42;;;;;;;;;;;9.40;99.90;;;;;;8355918;28;20447;-74
2023/01/13 15:51:44;;;;;;;;;;;9.30;99.90;;;;;;8359111;28;19931;-73
2023/01/13 15:55:51;;;;;;;;;;;9.30;99.90;;;;;;8366057;28;19955;-71
2023/01/13 15:59:54;;;;;;;;;;;9.30;99.90;;;;;;8355515;28;20168;-71
2023/01/13 16:03:56;;;;;;;;;;;9.20;99.90;;;;;;8352040;28;19928;-71
2023/01/13 16:07:58;;;;;;;;;;;9.20;99.90;;;;;;8353557;28;20047;-71
2023/01/13 16:11:59;;;;;;;;;;;9.20;99.90;;;;;;8350575;28;19925;-71
2023/01/13 16:16:01;;;;;;;;;;;9.20;99.90;;;;;;8348710;28;19932;-71
2023/01/13 16:20:03;;;;;;;;;;;9.20;99.90;;;;;;8347964;28;19963;-71
2023/01/13 16:24:05;;;;;;;;;;;9.20;99.90;;;;;;8374238;28;20331;-71
2023/01/13 16:28:11;;;;;;;;;;;9.00;99.90;;;;;;8360417;28;19932;-71
2023/01/13 16:32:13;;;;;;;;;;;8.90;99.90;;;;;;8360112;28;19979;-71
2023/01/13 16:36:16;;;;;;;;;;;8.80;99.90;;;;;;8364485;28;19929;-71
2023/01/13 16:40:23;;;;;;;;;;;8.80;99.90;;;;;;8368840;28;19939;-71
2023/01/13 16:44:25;;;;;;;;;;;8.90;99.90;;;;;;8356921;28;19968;-71
2023/01/13 16:48:27;;;;;;;;;;;8.90;99.90;;;;;;8345979;28;19931;-71
2023/01/13 16:52:28;;;;;;;;;;;9.00;99.90;;;;;;8351767;28;19960;-71
2023/01/13 16:56:31;;;;;;;;;;;9.00;99.90;;;;;;8355537;28;19936;-71
2023/01/13 17:00:33;;;;;;;;;;;9.00;99.90;;;;;;8369178;28;19935;-71
2023/01/13 17:04:34;;;;;;;;;;;9.10;99.90;;;;;;8358969;28;19935;-71
2023/01/13 17:08:36;;;;;;;;;;;9.10;99.90;;;;;;8368475;28;20015;-72
2023/01/13 17:12:37;;;;;;;;;;;8.90;99.90;;;;;;8358308;28;19943;-72
2023/01/13 17:16:39;;;;;;;;;;;8.50;99.90;;;;;;8378011;28;19947;-71
2023/01/13 17:20:41;;;;;;;;;;;8.20;99.90;;;;;;8372697;28;20868;-74
2023/01/13 17:24:42;;;;;;;;;;;8.00;99.90;;;;;;8361023;28;19934;-74
2023/01/13 17:28:45;;;;;;;;;;;7.90;99.90;;;;;;8358101;28;19939;-74
2023/01/13 17:32:46;;;;;;;;;;;7.80;99.90;;;;;;8369537;28;19935;-74
2023/01/13 17:36:48;;;;;;;;;;;7.80;99.90;;;;;;8363764;28;20430;-73
2023/01/13 17:40:50;;;;;;;;;;;7.70;99.90;;;;;;8376870;28;19982;-74
2023/01/13 17:44:51;;;;;;;;;;;7.60;99.90;;;;;;8366349;28;19982;-74
2023/01/13 17:48:53;;;;;;;;;;;7.40;99.90;;;;;;8368769;28;19929;-73
2023/01/13 17:52:55;;;;;;;;;;;7.20;99.90;;;;;;8366966;28;19931;-73
2023/01/13 17:56:56;;;;;;;;;;;7.20;99.90;;;;;;8359576;28;19925;-73
2023/01/13 18:00:58;;;;;;;;;;;7.20;99.90;;;;;;8358671;28;20511;-73
2023/01/13 18:05:00;;;;;;;;;;;7.20;99.90;;;;;;8353799;28;19925;-73
2023/01/13 18:09:01;;;;;;;;;;;7.20;99.90;;;;;;8363327;28;20439;-73
2023/01/13 18:13:04;;;;;;;;;;;7.30;99.90;;;;;;8354001;28;20054;-73
2023/01/13 18:17:05;;;;;;;;;;;7.30;99.90;;;;;;8351652;28;19929;-73
2023/01/13 18:30:00;;;;;;;;;;;7.40;99.90;;;;;;8323356;28;19925;-73
2023/01/13 18:34:02;;;;;;;;;;;7.50;99.90;;;;;;8354559;28;20380;-73
2023/01/13 18:38:03;;;;;;;;;;;7.40;99.90;;;;;;8342771;28;19943;-73
2023/01/13 18:46:26;;;;;;;;;;;7.30;99.90;;;;;;8358424;28;19929;-73
2023/01/13 18:50:28;;;;;;;;;;;7.30;99.90;;;;;;8350861;28;19997;-73
2023/01/13 18:54:30;;;;;;;;;;;7.20;99.90;;;;;;8341068;28;19938;-73
2023/01/13 18:58:32;;;;;;;;;;;7.20;99.90;;;;;;8359217;28;20392;-73
2023/01/13 19:02:34;;;;;;;;;;;7.30;99.90;;;;;;8354116;28;19925;-73
2023/01/13 19:06:38;;;;;;;;;;;7.30;99.90;;;;;;8344145;28;20284;-73
2023/01/13 19:10:41;;;;;;;;;;;7.30;99.90;;;;;;8353451;28;20410;-73
2023/01/13 19:14:43;;;;;;;;;;;7.30;99.90;;;;;;8337310;28;20411;-73
2023/01/13 19:18:45;;;;;;;;;;;7.30;99.90;;;;;;8348362;28;20023;-73
2023/01/13 19:22:52;;;;;;;;;;;7.30;99.90;;;;;;8356457;28;19980;-73
2023/01/13 19:26:54;;;;;;;;;;;7.40;99.90;;;;;;8357492;28;19933;-73
2023/01/13 19:30:59;;;;;;;;;;;7.40;99.90;;;;;;8362676;28;19929;-73
2023/01/13 19:35:01;;;;;;;;;;;7.50;99.90;;;;;;8354082;28;19924;-73
2023/01/13 19:39:03;;;;;;;;;;;7.60;99.90;;;;;;8357820;28;20360;-73
2023/01/13 19:47:25;;;;;;;;;;;7.60;99.90;;;;;;8352801;28;19932;-73
2023/01/13 19:51:26;;;;;;;;;;;7.60;99.90;;;;;;8346200;28;20383;-73
2023/01/13 19:55:30;;;;;;;;;;;7.50;99.90;;;;;;8368618;28;20337;-73
2023/01/13 19:59:32;;;;;;;;;;;7.50;99.90;;;;;;8355965;28;20645;-73
2023/01/13 20:03:36;;;;;;;;;;;7.50;99.90;;;;;;8374195;28;19951;-73
2023/01/13 20:07:38;;;;;;;;;;;7.60;99.90;;;;;;8359555;28;20454;-74
2023/01/13 20:11:39;;;;;;;;;;;7.60;99.90;;;;;;8355163;28;19935;-74
2023/01/13 20:15:41;;;;;;;;;;;7.60;99.90;;;;;;8354754;28;19931;-74
2023/01/13 20:19:43;;;;;;;;;;;7.60;99.90;;;;;;8362299;28;19929;-73
2023/01/13 20:23:50;;;;;;;;;;;7.50;99.90;;;;;;8360269;28;19932;-73
2023/01/13 20:27:52;;;;;;;;;;;7.40;99.90;;;;;;8359129;28;20330;-73
2023/01/13 20:31:54;;;;;;;;;;;7.40;99.90;;;;;;8346100;28;20327;-73
2023/01/13 20:35:56;;;;;;;;;;;7.30;99.90;;;;;;8335854;28;20361;-73
2023/01/13 20:40:00;;;;;;;;;;;7.30;99.90;;;;;;8349908;28;19925;-73
2023/01/13 20:44:02;;;;;;;;;;;7.30;99.90;;;;;;8347974;28;19983;-73
2023/01/13 20:48:04;;;;;;;;;;;7.30;99.90;;;;;;8350149;28;19925;-73
2023/01/13 20:52:09;;;;;;;;;;;7.30;99.90;;;;;;8349940;28;19931;-73
2023/01/13 20:56:11;;;;;;;;;;;7.30;99.90;;;;;;8354529;28;19947;-73
2023/01/13 21:00:15;;;;;;;;;;;7.30;99.90;;;;;;8352056;28;20274;-73
2023/01/13 21:04:17;;;;;;;;;;;7.30;99.90;;;;;;8347713;28;19968;-73
2023/01/13 21:08:18;;;;;;;;;;;7.30;99.90;;;;;;8359680;28;19931;-73
2023/01/13 21:16:40;;;;;;;;;;;7.40;99.90;;;;;;8361544;28;19937;-73
2023/01/13 21:20:42;;;;;;;;;;;7.50;99.90;;;;;;8360350;28;20007;-74
2023/01/13 21:24:44;;;;;;;;;;;7.60;99.90;;;;;;8355093;28;19931;-73
2023/01/13 21:28:45;;;;;;;;;;;7.60;99.90;;;;;;8357466;28;19924;-73
2023/01/13 21:32:47;;;;;;;;;;;7.70;99.90;;;;;;8355079;28;20327;-73
2023/01/13 21:36:49;;;;;;;;;;;7.70;99.90;;;;;;8359371;28;19968;-74
2023/01/13 21:40:55;;;;;;;;;;;7.70;99.90;;;;;;8355203;28;20419;-73
2023/01/13 21:49:17;;;;;;;;;;;7.70;99.90;;;;;;8356888;28;20121;-73
2023/01/13 21:53:21;;;;;;;;;;;7.70;99.90;;;;;;8354983;28;20189;-73
2023/01/13 21:57:22;;;;;;;;;;;7.70;99.90;;;;;;8372243;28;19995;-73
2023/01/13 22:01:24;;;;;;;;;;;7.80;99.90;;;;;;8354882;28;20552;-73
2023/01/13 22:05:26;;;;;;;;;;;7.80;99.90;;;;;;8381168;28;19932;-73
2023/01/13 22:09:28;;;;;;;;;;;7.80;99.90;;;;;;8386081;28;20415;-73
2023/01/13 22:17:51;;;;;;;;;;;7.90;99.90;;;;;;8378515;28;19944;-74
2023/01/13 22:21:53;;;;;;;;;;;7.90;99.90;;;;;;8370129;28;19929;-73
2023/01/13 22:26:01;;;;;;;;;;;7.90;99.90;;;;;;8381084;28;19994;-73
2023/01/13 22:30:02;;;;;;;;;;;8.00;99.90;;;;;;8376106;28;19947;-73
2023/01/13 22:34:04;;;;;;;;;;;8.00;99.90;;;;;;8375638;28;20414;-73
2023/01/13 22:38:06;;;;;;;;;;;8.00;99.90;;;;;;8362405;28;19924;-73
2023/01/13 22:42:09;;;;;;;;;;;8.00;99.90;;;;;;8365141;28;19971;-73
2023/01/13 22:46:11;;;;;;;;;;;8.10;99.90;;;;;;8376854;28;19948;-73
2023/01/13 22:50:13;;;;;;;;;;;8.10;99.90;;;;;;8376377;28;19929;-73
2023/01/13 22:54:15;;;;;;;;;;;8.10;99.90;;;;;;8366502;28;20335;-73
2023/01/13 23:03:20;;;;;;;;;;;8.20;99.90;;;;;;8373828;28;20015;-73
2023/01/13 23:07:22;;;;;;;;;;;8.20;99.90;;;;;;8378594;28;19925;-73
2023/01/13 23:11:28;;;;;;;;;;;8.20;99.90;;;;;;8379134;28;19928;-73
2023/01/13 23:15:29;;;;;;;;;;;8.20;99.90;;;;;;8363800;28;20450;-73
2023/01/13 23:19:31;;;;;;;;;;;8.30;99.90;;;;;;8363087;28;20032;-73
2023/01/13 23:23:33;;;;;;;;;;;8.30;99.90;;;;;;8372316;28;19968;-73
2023/01/13 23:27:35;;;;;;;;;;;8.30;99.90;;;;;;8376165;28;19943;-73
2023/01/13 23:31:37;;;;;;;;;;;8.30;99.90;;;;;;8373701;28;20541;-73
2023/01/13 23:35:38;;;;;;;;;;;8.30;99.90;;;;;;8361008;28;20372;-73
2023/01/13 23:39:40;;;;;;;;;;;8.20;99.90;;;;;;8379028;28;19935;-73
2023/01/13 23:43:41;;;;;;;;;;;8.20;99.90;;;;;;8361224;28;19928;-73
2023/01/13 23:47:43;;;;;;;;;;;8.20;99.90;;;;;;8379081;28;20249;-73
2023/01/13 23:51:48;;;;;;;;;;;8.10;99.90;;;;;;8370984;28;19932;-73
2023/01/13 23:55:54;;;;;;;;;;;8.10;99.90;;;;;;8375203;28;19924;-73
2023/01/13 23:59:56;;;;;;;;;;;8.10;99.90;;;;;;8373283;28;19967;-73
